map of HHH home
HHH - Airport
Location
City:  Hilton Head Island, South Carolina, United States
Name:Hilton Head Airport
ICAO:KHXD
IATA:HHH
FAA LID:HXD

Details
Type:Airport (Part 139 Class I)
Use:Public/Civil
Latitude:3213'28"N (32.224495)
Longitude:8041'51"W (-80.697400)
Datum:WGS 1984
Elevation:19 ft (6 m)
Variation:7.38W (WMM2015v2 magnetic declination)
-0.05 annual change
Runways:1
Longest:5000 × 100 ft (1524 × 30.5 m), paved

Time
Time Zone:UTC-5 (DST-4)
Local Time:

Weather
METAR:KHXD 041350Z 36005KT 10SM CLR 11/10 A3010

Related Locations
Nearby:
Farthest:MQZ: 11521 mi / 18541 km
Margaret River [Margaret River Airport], WA, AU

Find:

   beyond  
but within

Other Information
Maps:
NOTAMs:
Links:
Sources:

  
  • flag of United States
  • flag of South Carolina
  

Airport Diagram

Airport diagram for HHH

Airport diagram PDF from FAA

Sectional Chart

Flight Planning
at skyvector.com

Satellite Image

Google Maps Satellite view

 

Copyright © 2004-2019 Karl L. Swartz. All rights reserved.
The Great Circle Mapper name and logo are trademarks of the Great Circle Mapper.
All other trademarks mentioned herein belong to their respective owners.
Please see credits for attibutions and further copyright information.

  Follow gcmap on Facebook Follow gcmap on Twitter GCmap on LinkedIn

hCard Microformat

Geo Microformat